Time;durP1;ratioP1;P1;durP2;ratioP2;P2;SDS_P1;SDS_P2;PMS_P1;PMS_P2;Temp;Humidity;BMP_temperature;BMP_pressure;BME280_temperature;BME280_humidity;BME280_pressure;Samples;Min_cycle;Max_cycle;Signal;HPM_P1;HPM_P2
2021/06/19 00:02:50;;;;;;;3.78;0.57;;;;;;;8.75;100.00;99880.03;5058656;28;20048;-54
2021/06/19 00:05:53;;;;;;;1.25;1.05;;;;;;;8.67;100.00;99878.78;5058798;28;20048;-55
2021/06/19 00:08:56;;;;;;;1.92;1.77;;;;;;;8.63;100.00;99873.38;5058624;28;20040;-54
2021/06/19 00:12:00;;;;;;;1.08;0.98;;;;;;;8.55;100.00;99876.94;5058743;28;20048;-54
2021/06/19 00:15:07;;;;;;;1.33;0.90;;;;;;;8.55;100.00;99885.25;5058374;28;20508;-54
2021/06/19 00:18:10;;;;;;;1.98;0.77;;;;;;;8.60;100.00;99890.22;5058514;28;20051;-46
2021/06/19 00:21:14;;;;;;;1.40;1.30;;;;;;;8.68;100.00;99891.44;5058477;28;20409;-46
2021/06/19 00:24:24;;;;;;;5.90;2.10;;;;;;;8.81;100.00;99894.84;5058501;28;20048;-46
2021/06/19 00:27:27;;;;;;;1.73;0.90;;;;;;;8.93;100.00;99886.34;5058335;28;20048;-46
2021/06/19 00:30:31;;;;;;;3.40;1.40;;;;;;;9.04;100.00;99885.88;5058275;28;20048;-46
2021/06/19 00:33:34;;;;;;;1.67;1.08;;;;;;;9.17;100.00;99889.25;5058543;28;20110;-46
2021/06/19 00:36:38;;;;;;;1.67;1.58;;;;;;;9.29;100.00;99890.34;5058298;28;20051;-46
2021/06/19 00:39:42;;;;;;;6.05;1.23;;;;;;;9.38;100.00;99893.84;5058058;28;20067;-46
2021/06/19 00:42:58;;;;;;;1.67;1.58;;;;;;;9.48;100.00;99897.38;5066384;28;20051;-46
2021/06/19 00:46:01;;;;;;;6.97;1.30;;;;;;;9.56;100.00;99891.03;5078214;28;20059;-46
2021/06/19 00:49:05;;;;;;;2.28;1.13;;;;;;;9.62;100.00;99896.72;5077782;28;20047;-46
2021/06/19 00:52:08;;;;;;;2.63;0.63;;;;;;;9.66;100.00;99891.75;5078545;28;20587;-46
2021/06/19 00:55:11;;;;;;;2.05;1.08;;;;;;;9.68;100.00;99873.38;5077797;28;20051;-46
2021/06/19 00:58:15;;;;;;;1.38;0.73;;;;;;;9.71;100.00;99871.69;5078159;28;20059;-46
2021/06/19 01:01:19;;;;;;;2.67;1.50;;;;;;;9.70;100.00;99870.16;5077922;28;20055;-46
2021/06/19 01:04:22;;;;;;;3.17;1.50;;;;;;;9.61;100.00;99870.94;5075184;28;20043;-46
2021/06/19 01:07:26;;;;;;;1.42;1.13;;;;;;;9.46;100.00;99860.97;5074660;28;20055;-48
2021/06/19 01:10:29;;;;;;;0.65;0.50;;;;;;;9.29;100.00;99854.97;5074686;28;20056;-46
2021/06/19 01:13:32;;;;;;;1.85;0.57;;;;;;;9.15;100.00;99853.63;5074828;28;20052;-45
2021/06/19 01:16:36;;;;;;;0.60;0.60;;;;;;;9.06;100.00;99852.84;5074525;28;20051;-46
2021/06/19 01:19:39;;;;;;;1.02;0.52;;;;;;;8.98;100.00;99855.19;5074565;28;20051;-46
2021/06/19 01:22:46;;;;;;;0.77;0.77;;;;;;;8.88;100.00;99853.63;5074883;28;20484;-46
2021/06/19 01:25:49;;;;;;;9.18;1.40;;;;;;;8.79;100.00;99861.97;5074580;28;20052;-46
2021/06/19 01:28:54;;;;;;;1.77;0.60;;;;;;;8.69;100.00;99871.53;5074669;28;20067;-45
2021/06/19 01:31:57;;;;;;;2.08;1.05;;;;;;;8.58;100.00;99865.66;5074479;28;20051;-46
2021/06/19 01:35:01;;;;;;;3.22;1.23;;;;;;;8.51;100.00;99865.22;5074312;28;20056;-46
2021/06/19 01:38:06;;;;;;;3.33;1.10;;;;;;;8.42;100.00;99865.19;5074300;28;20048;-46
2021/06/19 01:41:27;;;;;;;1.15;1.05;;;;;;;8.34;100.00;99861.94;5073461;28;20699;-46
2021/06/19 01:44:33;;;;;;;3.30;1.30;;;;;;;8.29;100.00;99870.88;5074117;28;20043;-45
2021/06/19 01:47:36;;;;;;;1.60;0.98;;;;;;;8.25;100.00;99867.47;5073966;28;20071;-46
2021/06/19 01:50:40;;;;;;;1.58;0.73;;;;;;;8.22;100.00;99868.38;5073052;28;20389;-45
2021/06/19 01:53:46;;;;;;;2.53;1.40;;;;;;;8.17;100.00;99868.97;5073875;28;20047;-45
2021/06/19 01:56:50;;;;;;;3.67;1.45;;;;;;;8.15;100.00;99865.88;5073688;28;20405;-46
2021/06/19 02:00:24;;;;;;;4.18;1.63;;;;;;;8.19;100.00;99869.28;5074132;28;20107;-45
2021/06/19 02:03:27;;;;;;;4.07;1.48;;;;;;;8.25;100.00;99859.13;5073647;28;20055;-45
2021/06/19 02:06:31;;;;;;;3.63;1.20;;;;;;;8.26;100.00;99852.38;5073521;28;20048;-45
2021/06/19 02:09:34;;;;;;;5.22;1.92;;;;;;;8.24;100.00;99857.59;5073702;28;20048;-45
2021/06/19 02:12:37;;;;;;;2.92;1.55;;;;;;;8.16;100.00;99850.78;5073249;28;20051;-46
2021/06/19 02:15:44;;;;;;;1.02;0.93;;;;;;;8.06;100.00;99838.91;5072095;28;20048;-45
2021/06/19 02:18:47;;;;;;;4.97;1.05;;;;;;;8.00;100.00;99837.19;5073443;28;20051;-45
2021/06/19 02:21:51;;;;;;;2.95;1.92;;;;;;;7.92;100.00;99847.03;5073239;28;20051;-46
2021/06/19 02:24:54;;;;;;;3.33;1.67;;;;;;;7.89;100.00;99834.84;5073330;28;20059;-46
2021/06/19 02:28:05;;;;;;;2.17;1.27;;;;;;;7.84;100.00;99832.66;5073091;28;20487;-46
2021/06/19 02:31:09;;;;;;;1.83;1.45;;;;;;;7.78;100.00;99836.50;5073474;28;20047;-45
2021/06/19 02:34:12;;;;;;;2.53;1.42;;;;;;;7.71;100.00;99831.25;5073333;28;20042;-45
2021/06/19 02:37:15;;;;;;;1.33;0.90;;;;;;;7.65;100.00;99828.28;5073003;28;20051;-45
2021/06/19 02:40:19;;;;;;;1.30;0.85;;;;;;;7.56;100.00;99829.03;5073203;28;20456;-46
2021/06/19 02:43:23;;;;;;;5.13;1.85;;;;;;;7.50;100.00;99836.41;5072693;28;20051;-46
2021/06/19 02:46:27;;;;;;;6.38;1.38;;;;;;;7.54;100.00;99845.34;5072732;28;20056;-46
2021/06/19 02:49:30;;;;;;;8.43;2.08;;;;;;;7.55;100.00;99835.81;5072745;28;20051;-46
2021/06/19 02:52:40;;;;;;;3.50;1.83;;;;;;;7.69;100.00;99830.94;5072632;28;20397;-46
2021/06/19 02:55:44;;;;;;;1.58;1.48;;;;;;;7.79;100.00;99829.72;5072343;28;20051;-46
2021/06/19 02:58:47;;;;;;;2.97;1.80;;;;;;;7.88;100.00;99836.09;5072608;28;20051;-45
2021/06/19 03:01:51;;;;;;;3.40;1.08;;;;;;;7.97;100.00;99838.88;5072549;28;20047;-45
2021/06/19 03:04:54;;;;;;;4.80;1.90;;;;;;;8.03;100.00;99833.50;5072478;28;20516;-46
2021/06/19 03:07:58;;;;;;;1.60;1.45;;;;;;;8.08;100.00;99843.97;5072562;28;20051;-46
2021/06/19 03:11:04;;;;;;;1.88;1.63;;;;;;;8.12;100.00;99841.84;5072453;28;20043;-46
2021/06/19 03:14:07;;;;;;;1.65;1.30;;;;;;;8.18;100.00;99849.09;5071522;28;20059;-45
2021/06/19 03:17:12;;;;;;;1.77;1.10;;;;;;;8.26;100.00;99855.16;5072348;28;20047;-46
2021/06/19 03:20:17;;;;;;;1.70;1.27;;;;;;;8.35;100.00;99858.72;5072206;28;20052;-46
2021/06/19 03:23:20;;;;;;;3.90;1.17;;;;;;;8.41;100.00;99861.66;5072342;28;20063;-53
2021/06/19 03:26:24;;;;;;;1.65;1.08;;;;;;;8.45;100.00;99872.59;5071839;28;20043;-53
2021/06/19 03:29:27;;;;;;;18.25;2.08;;;;;;;8.48;100.00;99875.22;5072129;28;20055;-53
2021/06/19 03:32:31;;;;;;;5.45;2.42;;;;;;;8.44;100.00;99880.16;5072069;28;20047;-54
2021/06/19 03:35:35;;;;;;;4.85;1.38;;;;;;;8.52;100.00;99875.84;5071955;28;20516;-55
2021/06/19 03:38:38;;;;;;;4.30;1.70;;;;;;;8.54;100.00;99881.72;5071934;28;20396;-53
2021/06/19 03:41:42;;;;;;;3.80;2.00;;;;;;;8.57;100.00;99897.44;5072147;28;20043;-53
2021/06/19 03:44:46;;;;;;;8.88;2.15;;;;;;;8.63;100.00;99903.16;5071908;28;20043;-53
2021/06/19 03:47:50;;;;;;;3.22;1.63;;;;;;;8.66;100.00;99908.56;5071858;28;20400;-53
2021/06/19 03:50:53;;;;;;;1.10;1.08;;;;;;;8.72;100.00;99915.03;5072131;28;20449;-54
2021/06/19 03:53:56;;;;;;;3.03;1.70;;;;;;;8.76;100.00;99923.22;5071904;28;20416;-53
2021/06/19 03:56:59;;;;;;;5.93;1.58;;;;;;;8.81;100.00;99922.59;5071712;28;20075;-53
2021/06/19 04:00:08;;;;;;;3.33;1.65;;;;;;;8.82;100.00;99916.59;5071983;28;20043;-53
2021/06/19 04:03:12;;;;;;;2.60;1.40;;;;;;;8.88;100.00;99927.88;5072065;28;20048;-53
2021/06/19 04:06:16;;;;;;;1.27;1.17;;;;;;;8.92;100.00;99912.56;5072103;28;20048;-53
2021/06/19 04:09:19;;;;;;;2.17;1.42;;;;;;;8.97;100.00;99917.50;5071927;28;20048;-52
2021/06/19 04:12:23;;;;;;;3.15;0.95;;;;;;;8.97;100.00;99914.72;5071829;28;20067;-52
2021/06/19 04:15:26;;;;;;;2.75;1.20;;;;;;;8.97;100.00;99923.06;5071774;28;20063;-53
2021/06/19 04:18:30;;;;;;;2.40;1.38;;;;;;;8.95;100.00;99922.75;5071758;28;20523;-53
2021/06/19 04:21:33;;;;;;;2.58;1.02;;;;;;;8.90;100.00;99909.47;5071665;28;20064;-53
2021/06/19 04:24:38;;;;;;;4.85;1.75;;;;;;;8.86;100.00;99908.09;5071783;28;20059;-53
2021/06/19 04:27:53;;;;;;;13.68;1.85;;;;;;;8.80;100.00;99907.16;5071524;28;20044;-53
2021/06/19 04:31:01;;;;;;;11.77;2.28;;;;;;;8.78;100.00;99907.63;5071630;28;20060;-53
2021/06/19 04:34:04;;;;;;;2.83;0.90;;;;;;;8.77;100.00;99900.53;5071638;28;20059;-53
2021/06/19 04:37:09;;;;;;;2.55;1.52;;;;;;;8.75;100.00;99894.66;5071619;28;20508;-54
2021/06/19 04:40:22;;;;;;;4.10;1.42;;;;;;;8.71;100.00;99891.28;5074334;28;20043;-46
2021/06/19 04:43:41;;;;;;;3.88;1.85;;;;;;;8.68;100.00;99892.22;5075366;28;20051;-45
2021/06/19 04:46:46;;;;;;;0.95;0.65;;;;;;;8.62;100.00;99882.94;5075259;28;20516;-45
2021/06/19 04:49:49;;;;;;;7.22;1.70;;;;;;;8.57;100.00;99878.00;5075177;28;20052;-46
2021/06/19 04:52:53;;;;;;;3.75;1.80;;;;;;;8.54;100.00;99875.38;5075147;28;20047;-46
2021/06/19 04:55:56;;;;;;;2.65;1.48;;;;;;;8.54;100.00;99883.69;5074905;28;20583;-46
2021/06/19 04:59:01;;;;;;;3.55;1.30;;;;;;;8.52;100.00;99875.84;5075072;28;20051;-46
2021/06/19 05:02:05;;;;;;;11.07;2.50;;;;;;;8.49;100.00;99865.66;5075003;28;20056;-46
2021/06/19 05:05:08;;;;;;;3.53;2.05;;;;;;;8.49;100.00;99876.75;5074888;28;20520;-46
2021/06/19 05:08:12;;;;;;;6.78;1.35;;;;;;;8.42;100.00;99882.63;5075019;28;20047;-47
2021/06/19 05:11:15;;;;;;;3.35;1.55;;;;;;;8.38;100.00;99873.69;5074816;28;20051;-46
2021/06/19 05:14:19;;;;;;;5.00;1.70;;;;;;;8.39;100.00;99880.75;5074636;28;20496;-46
2021/06/19 05:17:22;;;;;;;3.20;1.60;;;;;;;8.39;100.00;99877.97;5074750;28;20051;-46
2021/06/19 05:20:28;;;;;;;3.13;1.17;;;;;;;8.38;100.00;99865.34;5074476;28;20044;-46
2021/06/19 05:23:32;;;;;;;5.97;1.75;;;;;;;8.42;100.00;99868.75;5073635;28;20063;-46
2021/06/19 05:26:35;;;;;;;3.80;1.98;;;;;;;8.54;100.00;99881.72;5074241;28;20043;-45
2021/06/19 05:29:39;;;;;;;4.70;1.33;;;;;;;8.65;100.00;99882.03;5074329;28;20051;-46
2021/06/19 05:32:42;;;;;;;3.40;0.98;;;;;;;8.76;100.00;99876.78;5074412;28;20067;-46
2021/06/19 05:35:46;;;;;;;4.97;2.58;;;;;;;8.90;100.00;99881.72;5074250;28;20052;-46
2021/06/19 05:38:50;;;;;;;1.80;1.00;;;;;;;9.04;100.00;99878.31;5074556;28;20055;-46
2021/06/19 05:41:54;;;;;;;4.53;2.45;;;;;;;9.08;100.00;99876.16;5074081;28;20408;-46
2021/06/19 05:44:57;;;;;;;1.73;1.17;;;;;;;9.11;100.00;99880.78;5074235;28;20040;-46
2021/06/19 05:48:01;;;;;;;2.03;1.13;;;;;;;9.21;100.00;99877.97;5074133;28;20051;-46
2021/06/19 05:51:04;;;;;;;5.88;2.20;;;;;;;9.38;100.00;99884.72;5073867;28;20067;-46
2021/06/19 05:54:08;;;;;;;11.45;1.73;;;;;;;9.58;100.00;99887.78;5074003;28;20075;-46
2021/06/19 05:57:11;;;;;;;1.65;0.88;;;;;;;9.87;100.00;99883.19;5073902;28;20397;-46
2021/06/19 06:00:15;;;;;;;3.72;1.00;;;;;;;10.14;100.00;99885.09;5073835;28;20035;-46
2021/06/19 06:03:18;;;;;;;2.42;1.20;;;;;;;10.39;100.00;99890.25;5073793;28;20381;-46
2021/06/19 06:06:22;;;;;;;7.10;1.45;;;;;;;10.71;100.00;99896.19;5073988;28;20067;-46
2021/06/19 06:09:25;;;;;;;1.67;0.80;;;;;;;10.99;100.00;99894.75;5073613;28;20048;-46
2021/06/19 06:12:29;;;;;;;3.13;1.20;;;;;;;11.25;100.00;99904.88;5073828;28;20520;-46
2021/06/19 06:15:32;;;;;;;3.00;0.95;;;;;;;11.47;100.00;99896.16;5073579;28;20044;-46
2021/06/19 06:18:36;;;;;;;1.95;0.57;;;;;;;11.61;100.00;99895.38;5073441;28;20047;-46
2021/06/19 06:21:39;;;;;;;2.55;0.85;;;;;;;11.73;100.00;99899.94;5073307;28;20071;-46
2021/06/19 06:24:43;;;;;;;0.90;0.80;;;;;;;11.93;100.00;99905.56;5073250;28;20047;-46
2021/06/19 06:27:47;;;;;;;0.45;0.43;;;;;;;12.17;100.00;99920.16;5073358;28;20039;-46
2021/06/19 06:30:51;;;;;;;1.85;0.77;;;;;;;12.28;100.00;99907.63;5073404;28;20044;-46
2021/06/19 06:33:54;;;;;;;0.95;0.60;;;;;;;12.51;100.00;99898.28;5073285;28;20040;-46
2021/06/19 06:36:58;;;;;;;0.73;0.30;;;;;;;12.65;100.00;99898.22;5073207;28;20054;-47
2021/06/19 06:40:03;;;;;;;1.55;0.13;;;;;;;12.83;100.00;99892.34;5073150;28;20051;-46
2021/06/19 06:43:06;;;;;;;1.65;0.40;;;;;;;12.88;100.00;99888.09;5073035;28;20067;-46
2021/06/19 06:46:09;;;;;;;4.03;0.57;;;;;;;12.90;100.00;99891.94;5072856;28;20047;-46
2021/06/19 06:49:13;;;;;;;0.55;0.47;;;;;;;12.72;100.00;99885.84;5072828;28;20051;-46
2021/06/19 06:52:16;;;;;;;5.47;0.77;;;;;;;12.64;100.00;99890.34;5072611;28;20047;-46
2021/06/19 06:55:20;;;;;;;2.28;0.70;;;;;;;12.71;100.00;99901.09;5072423;28;20056;-46
2021/06/19 06:58:23;;;;;;;2.45;0.73;;;;;;;12.82;100.00;99895.66;5072531;28;20413;-46
2021/06/19 07:01:27;;;;;;;6.10;0.55;;;;;;;12.90;100.00;99903.13;5072166;28;20515;-46
2021/06/19 07:04:30;;;;;;;0.38;0.38;;;;;;;12.92;100.00;99902.63;5072509;28;20415;-46
2021/06/19 07:07:33;;;;;;;0.57;0.47;;;;;;;12.94;100.00;99902.91;5072360;28;20071;-44
2021/06/19 07:10:37;;;;;;;1.42;0.43;;;;;;;12.94;100.00;99914.84;5072122;28;20048;-45
2021/06/19 07:13:40;;;;;;;0.45;0.20;;;;;;;12.95;100.00;99913.56;5072315;28;20047;-46
2021/06/19 07:16:44;;;;;;;0.90;0.30;;;;;;;13.01;100.00;99908.06;5072454;28;20051;-44
2021/06/19 07:19:47;;;;;;;0.73;0.50;;;;;;;13.14;100.00;99893.75;5072480;28;20044;-46
2021/06/19 07:22:50;;;;;;;0.98;0.22;;;;;;;13.39;100.00;99898.56;5072457;28;20059;-46
2021/06/19 07:25:55;;;;;;;0.60;0.30;;;;;;;13.60;100.00;99902.84;5072355;28;20499;-44
2021/06/19 07:28:59;;;;;;;1.38;0.75;;;;;;;13.69;100.00;99895.03;5072302;28;20046;-45
2021/06/19 07:32:04;;;;;;;2.78;0.28;;;;;;;13.76;100.00;99893.84;5072436;28;20047;-44
2021/06/19 07:35:08;;;;;;;1.27;0.30;;;;;;;13.91;100.00;99888.09;5072190;28;20503;-45
2021/06/19 07:38:11;;;;;;;0.35;0.22;;;;;;;13.97;100.00;99886.13;5072375;28;20047;-46
2021/06/19 07:41:15;;;;;;;1.42;0.75;;;;;;;14.02;100.00;99879.78;5072003;28;20040;-46
2021/06/19 07:44:19;;;;;;;0.20;0.10;;;;;;;13.95;100.00;99871.81;5072368;28;20067;-43
2021/06/19 07:47:22;;;;;;;0.60;0.35;;;;;;;13.79;100.00;99875.28;5072021;28;20035;-46
2021/06/19 07:50:26;;;;;;;0.22;0.20;;;;;;;13.90;100.00;99872.56;5072004;28;20044;-46
2021/06/19 07:53:30;;;;;;;0.75;0.28;;;;;;;14.10;100.00;99866.84;5071767;28;20051;-44
2021/06/19 07:56:33;;;;;;;2.25;0.80;;;;;;;14.16;100.00;99876.06;5071426;28;20051;-44
2021/06/19 07:59:37;;;;;;;1.20;0.20;;;;;;;14.22;100.00;99876.84;5071500;28;20531;-44
2021/06/19 08:02:43;;;;;;;1.95;0.52;;;;;;;14.40;100.00;99873.69;5071693;28;20052;-44
2021/06/19 08:05:48;;;;;;;3.50;0.35;;;;;;;14.61;100.00;99880.66;5071878;28;20039;-44
2021/06/19 08:08:54;;;;;;;0.30;0.20;;;;;;;14.81;100.00;99883.28;5072251;28;20051;-44
2021/06/19 08:11:59;;;;;;;0.10;0.10;;;;;;;14.81;100.00;99883.28;5072074;28;20047;-44
2021/06/19 08:15:06;;;;;;;0.20;0.20;;;;;;;14.71;100.00;99876.38;5075868;28;20043;-46
2021/06/19 08:18:10;;;;;;;0.35;0.20;;;;;;;14.53;100.00;99874.00;5075059;28;20068;-46
2021/06/19 08:21:14;;;;;;;0.57;0.17;;;;;;;14.41;100.00;99869.59;5075726;28;20055;-46
2021/06/19 08:24:17;;;;;;;0.98;0.20;;;;;;;14.37;100.00;99866.28;5075422;28;20055;-46
2021/06/19 08:27:25;;;;;;;3.60;0.30;;;;;;;14.50;100.00;99871.44;5075274;28;20115;-46
2021/06/19 08:30:29;;;;;;;1.00;0.10;;;;;;;14.59;100.00;99868.44;5075419;28;20039;-46
2021/06/19 08:33:33;;;;;;;0.10;0.10;;;;;;;14.94;100.00;99871.63;5075714;28;20055;-46
2021/06/19 08:36:37;;;;;;;0.20;0.20;;;;;;;15.11;100.00;99873.22;5075205;28;20405;-46
2021/06/19 08:39:40;;;;;;;1.27;0.47;;;;;;;15.19;100.00;99865.81;5074462;28;20067;-46
2021/06/19 08:42:44;;;;;;;0.20;0.15;;;;;;;15.17;100.00;99865.56;5075254;28;20043;-46
2021/06/19 08:45:50;;;;;;;0.10;0.10;;;;;;;14.97;100.00;99865.75;5075443;28;20409;-46
2021/06/19 08:48:57;;;;;;;0.35;0.17;;;;;;;14.81;100.00;99854.50;5075298;28;20043;-46
2021/06/19 08:52:01;;;;;;;0.17;0.10;;;;;;;14.80;100.00;99842.50;5075172;28;20055;-46
2021/06/19 08:55:10;;;;;;;0.22;0.15;;;;;;;15.06;100.00;99836.72;5075010;28;20052;-46
2021/06/19 08:58:13;;;;;;;0.30;0.10;;;;;;;15.52;100.00;99825.84;5075083;28;20540;-46
2021/06/19 09:01:17;;;;;;;0.45;0.10;;;;;;;16.04;100.00;99825.28;5075066;28;20051;-46
2021/06/19 09:04:20;;;;;;;0.17;0.17;;;;;;;16.42;100.00;99839.22;5074042;28;20040;-46
2021/06/19 09:07:39;;;;;;;0.22;0.05;;;;;;;16.61;100.00;99840.19;5074658;28;20036;-46
2021/06/19 09:10:43;;;;;;;0.22;0.17;;;;;;;16.40;100.00;99838.19;5074763;28;20504;-46
2021/06/19 09:14:00;;;;;;;0.85;0.20;;;;;;;16.23;100.00;99820.63;5074742;28;20047;-46
2021/06/19 09:17:05;;;;;;;0.98;0.20;;;;;;;16.52;100.00;99823.63;5074875;28;20048;-46
2021/06/19 09:20:09;;;;;;;0.10;0.10;;;;;;;16.78;100.00;99825.31;5074812;28;20507;-46
2021/06/19 09:23:13;;;;;;;0.13;0.10;;;;;;;17.19;100.00;99826.09;5074650;28;20515;-46
2021/06/19 09:26:32;;;;;;;0.40;0.30;;;;;;;17.36;100.00;99818.28;5073788;28;20591;-46
2021/06/19 09:29:36;;;;;;;0.10;0.10;;;;;;;17.30;100.00;99815.50;5074311;28;20067;-47
2021/06/19 09:33:00;;;;;;;1.23;0.10;;;;;;;16.96;100.00;99819.06;5074532;28;20539;-47
2021/06/19 09:36:04;;;;;;;0.10;0.00;;;;;;;16.91;100.00;99812.19;5074306;28;20052;-46
2021/06/19 09:39:08;;;;;;;1.00;0.15;;;;;;;16.94;100.00;99799.13;5074431;28;20047;-46
2021/06/19 09:42:13;;;;;;;1.15;0.10;;;;;;;17.03;100.00;99802.41;5074472;28;20048;-46
2021/06/19 09:45:21;;;;;;;0.08;0.03;;;;;;;17.16;100.00;99805.38;5074168;28;20055;-46
2021/06/19 09:48:34;;;;;;;0.45;0.45;;;;;;;17.40;100.00;99794.19;5073950;28;20059;-46
2021/06/19 09:51:45;;;;;;;0.30;0.10;;;;;;;17.68;100.00;99802.44;5073880;28;20048;-46
2021/06/19 09:54:58;;;;;;;;;;;;;;;17.81;100.00;99802.56;5074220;28;20397;-46
2021/06/19 09:58:02;;;;;;;0.20;0.13;;;;;;;17.67;100.00;99798.06;5074038;28;19916;-46
2021/06/19 10:01:05;;;;;;;1.13;0.20;;;;;;;17.56;100.00;99803.06;5074034;28;20067;-46
2021/06/19 10:04:09;;;;;;;0.73;0.25;;;;;;;17.53;100.00;99809.72;5073887;28;20052;-46
2021/06/19 10:07:12;;;;;;;0.40;0.15;;;;;;;17.45;100.00;99815.91;5073878;28;20047;-46
2021/06/19 10:10:16;;;;;;;0.10;0.00;;;;;;;17.49;100.00;99815.63;5072814;28;20048;-46
2021/06/19 10:13:21;;;;;;;0.10;0.05;;;;;;;17.56;100.00;99808.69;5073617;28;20043;-46
2021/06/19 10:16:27;;;;;;;0.70;0.13;;;;;;;17.69;100.00;99818.06;5073623;28;20496;-46
2021/06/19 10:19:32;;;;;;;0.10;0.00;;;;;;;17.84;100.00;99806.38;5073535;28;20048;-46
2021/06/19 10:22:38;;;;;;;0.10;0.10;;;;;;;17.98;100.00;99810.84;5073170;28;20071;-46
2021/06/19 10:25:46;;;;;;;0.10;0.10;;;;;;;17.99;100.00;99807.53;5073526;28;20055;-46
2021/06/19 10:28:52;;;;;;;0.43;0.10;;;;;;;17.88;100.00;99818.91;5073417;28;20102;-46
2021/06/19 10:31:56;;;;;;;0.10;0.10;;;;;;;17.91;100.00;99806.56;5073504;28;20052;-46
2021/06/19 10:35:00;;;;;;;0.20;0.10;;;;;;;17.82;100.00;99803.34;5073292;28;20047;-46
2021/06/19 10:38:16;;;;;;;0.22;0.10;;;;;;;17.88;100.00;99804.81;5072566;28;20508;-46
2021/06/19 10:41:22;;;;;;;0.10;0.10;;;;;;;17.78;100.00;99809.25;5073040;28;20044;-46
2021/06/19 10:44:49;;;;;;;0.10;0.10;;;;;;;17.48;100.00;99814.09;5072950;28;20043;-47
2021/06/19 10:48:10;;;;;;;0.15;0.10;;;;;;;17.52;100.00;99814.59;5073041;28;20059;-46
2021/06/19 10:51:20;;;;;;;0.40;0.08;;;;;;;17.91;100.00;99809.38;5073048;28;20489;-46
2021/06/19 10:54:26;;;;;;;0.35;0.10;;;;;;;18.44;100.00;99807.00;5072695;28;20051;-47
2021/06/19 10:57:41;;;;;;;0.70;0.10;;;;;;;18.38;100.00;99803.50;5072676;28;20051;-47
2021/06/19 11:00:47;;;;;;;0.30;0.10;;;;;;;18.11;100.00;99797.66;5072728;28;20047;-47
2021/06/19 11:03:56;;;;;;;0.10;0.00;;;;;;;17.89;100.00;99802.72;5072712;28;20056;-47
2021/06/19 11:07:01;;;;;;;0.10;0.03;;;;;;;18.38;100.00;99800.69;5072640;28;20401;-47
2021/06/19 11:10:05;;;;;;;0.45;0.10;;;;;;;18.61;100.00;99796.31;5072565;28;20768;-47
2021/06/19 11:13:27;;;;;;;1.75;0.10;;;;;;;18.76;100.00;99807.91;5072536;28;20051;-47
2021/06/19 11:16:31;;;;;;;3.95;0.10;;;;;;;19.05;100.00;99795.72;5072692;28;20067;-47
2021/06/19 11:19:47;;;;;;;0.35;0.10;;;;;;;19.29;100.00;99800.47;5072436;28;20507;-46
2021/06/19 11:22:53;;;;;;;4.18;0.55;;;;;;;19.35;100.00;99804.78;5072458;28;20062;-46
2021/06/19 11:26:03;;;;;;;0.65;0.10;;;;;;;19.51;100.00;99800.91;5072327;28;20052;-47
2021/06/19 11:29:38;;;;;;;3.33;0.17;;;;;;;19.85;100.00;99794.69;5072526;28;20043;-47
2021/06/19 11:32:41;;;;;;;1.17;0.30;;;;;;;20.02;100.00;99786.66;5072343;28;20063;-47
2021/06/19 11:35:48;;;;;;;0.43;0.10;;;;;;;19.72;100.00;99777.72;5072064;28;20063;-48
2021/06/19 11:38:56;;;;;;;0.10;0.00;;;;;;;19.58;100.00;99771.25;5072246;28;20043;-47
2021/06/19 11:42:00;;;;;;;0.55;0.10;;;;;;;19.65;100.00;99771.41;5072283;28;20047;-48
2021/06/19 11:45:14;;;;;;;0.60;0.10;;;;;;;19.76;100.00;99764.00;5072427;28;20047;-47
2021/06/19 11:48:18;;;;;;;0.82;0.10;;;;;;;19.90;100.00;99762.75;5071815;28;20055;-48
2021/06/19 11:51:25;;;;;;;0.10;0.10;;;;;;;20.21;100.00;99764.72;5072258;28;20055;-47
2021/06/19 11:54:29;;;;;;;0.10;0.00;;;;;;;20.59;100.00;99751.84;5072149;28;20040;-48
2021/06/19 11:57:32;;;;;;;0.05;0.00;;;;;;;20.87;100.00;99752.00;5071251;28;20052;-47
2021/06/19 12:00:52;;;;;;;0.25;0.00;;;;;;;20.61;100.00;99752.06;5071113;28;20064;-48
2021/06/19 12:03:59;;;;;;;;;;;;;;;20.24;100.00;99750.28;5072565;28;20047;-48
2021/06/19 12:07:03;;;;;;;0.10;0.00;;;;;;;19.40;100.00;99750.28;5071987;28;19912;-48
2021/06/19 12:10:26;;;;;;;0.55;0.10;;;;;;;18.95;100.00;99749.41;5071802;28;20052;-48
2021/06/19 12:13:38;;;;;;;3.00;0.10;;;;;;;19.43;100.00;99737.88;5072046;28;20052;-47
2021/06/19 12:16:41;;;;;;;0.10;0.00;;;;;;;20.09;100.00;99735.13;5071914;28;20048;-48
2021/06/19 12:19:45;;;;;;;0.47;0.17;;;;;;;20.59;100.00;99734.88;5072074;28;20059;-47
2021/06/19 12:22:50;;;;;;;0.17;0.15;;;;;;;20.35;100.00;99724.59;5072758;28;20055;-48
2021/06/19 12:26:04;;;;;;;0.20;0.20;;;;;;;20.03;100.00;99732.38;5071792;28;20071;-48
2021/06/19 12:29:07;;;;;;;0.30;0.10;;;;;;;20.04;100.00;99722.63;5071712;28;20500;-48
2021/06/19 12:32:23;;;;;;;0.25;0.00;;;;;;;20.14;100.00;99720.84;5072000;28;20056;-47
2021/06/19 12:35:27;;;;;;;2.38;0.40;;;;;;;20.26;100.00;99719.38;5071638;28;20048;-48
2021/06/19 12:38:31;;;;;;;4.03;0.20;;;;;;;20.26;100.00;99715.78;5071739;28;20504;-48
2021/06/19 12:41:34;;;;;;;0.73;0.00;;;;;;;19.89;100.00;99716.75;5071511;28;20425;-47
2021/06/19 12:44:38;;;;;;;0.98;0.20;;;;;;;19.90;100.00;99714.69;5071789;28;20043;-48
2021/06/19 12:47:44;;;;;;;2.75;0.30;;;;;;;20.07;100.00;99715.88;5071632;28;20048;-48
2021/06/19 12:50:49;;;;;;;1.15;0.10;;;;;;;20.28;100.00;99710.34;5071520;28;20048;-47
2021/06/19 12:53:53;;;;;;;1.67;0.30;;;;;;;20.59;100.00;99712.22;5071764;28;20047;-48
2021/06/19 12:57:03;;;;;;;1.08;0.38;;;;;;;20.69;100.00;99713.28;5071242;28;20052;-48
2021/06/19 13:00:10;;;;;;;;;;;;;;;20.50;100.00;99709.84;5072770;28;20416;-48
2021/06/19 13:03:22;;;;;;;1.98;0.10;;;;;;;20.00;100.00;99704.47;5075186;28;19913;-48
2021/06/19 13:06:32;;;;;;;0.52;0.20;;;;;;;19.34;100.00;99712.09;5074876;28;20111;-48
2021/06/19 13:09:49;;;;;;;0.80;0.25;;;;;;;19.20;100.00;99710.53;5074486;28;20046;-48
2021/06/19 13:12:54;;;;;;;0.38;0.17;;;;;;;19.68;100.00;99702.47;5073986;28;20044;-47
2021/06/19 13:16:00;;;;;;;2.88;0.95;;;;;;;19.94;100.00;99710.22;5074685;28;20075;-48
2021/06/19 13:19:08;;;;;;;2.60;0.28;;;;;;;19.98;100.00;99707.06;5074885;28;20047;-47
2021/06/19 13:22:12;;;;;;;4.38;0.38;;;;;;;19.88;100.00;99703.16;5074570;28;20412;-48
2021/06/19 13:25:16;;;;;;;0.20;0.10;;;;;;;20.16;100.00;99694.88;5074459;28;20052;-47
2021/06/19 13:28:25;;;;;;;1.75;0.20;;;;;;;20.69;100.00;99692.72;5074385;28;20496;-48
2021/06/19 13:31:32;;;;;;;3.03;0.52;;;;;;;20.55;100.00;99688.41;5074417;28;20405;-48
2021/06/19 13:34:38;;;;;;;0.80;0.10;;;;;;;20.81;100.00;99683.41;5074355;28;20052;-48
2021/06/19 13:37:42;;;;;;;1.75;0.32;;;;;;;21.25;100.00;99683.66;5074127;28;20044;-48
2021/06/19 13:40:45;;;;;;;0.63;0.25;;;;;;;21.59;100.00;99667.31;5074257;28;20078;-47
2021/06/19 13:43:48;;;;;;;0.73;0.20;;;;;;;22.00;100.00;99655.88;5074441;28;20047;-47
2021/06/19 13:46:53;;;;;;;6.13;0.50;;;;;;;21.72;100.00;99667.22;5074500;28;20039;-48
2021/06/19 13:49:58;;;;;;;0.68;0.10;;;;;;;21.21;100.00;99669.06;5074058;28;20051;-48
2021/06/19 13:53:03;;;;;;;0.82;0.17;;;;;;;21.31;100.00;99670.13;5074041;28;20039;-48
2021/06/19 13:56:07;;;;;;;0.17;0.08;;;;;;;21.07;100.00;99686.13;5073674;28;20393;-48
2021/06/19 13:59:10;;;;;;;0.68;0.45;;;;;;;20.85;100.00;99678.19;5073944;28;20051;-47
2021/06/19 14:02:14;;;;;;;0.90;0.30;;;;;;;20.84;100.00;99685.13;5074241;28;20055;-48
2021/06/19 14:05:18;;;;;;;1.17;0.20;;;;;;;20.66;100.00;99688.91;5073835;28;20048;-49
2021/06/19 14:08:21;;;;;;;0.77;0.08;;;;;;;20.15;100.00;99693.34;5072960;28;20043;-48
2021/06/19 14:11:28;;;;;;;1.10;0.10;;;;;;;19.78;100.00;99683.03;5073457;28;20098;-47
2021/06/19 14:14:32;;;;;;;0.50;0.20;;;;;;;19.43;100.00;99678.56;5072748;28;20044;-48
2021/06/19 14:17:35;;;;;;;0.63;0.10;;;;;;;19.55;100.00;99677.06;5073606;28;20115;-48
2021/06/19 14:20:39;;;;;;;0.57;0.30;;;;;;;19.42;100.00;99651.63;5073642;28;20046;-48
2021/06/19 14:23:44;;;;;;;0.20;0.10;;;;;;;19.23;100.00;99650.16;5073440;28;20051;-48
2021/06/19 14:30:23;;;;;;;0.17;0.00;;;;;;;19.06;100.00;99658.91;5066953;28;20051;-48
2021/06/19 14:33:27;;;;;;;0.35;0.10;;;;;;;18.92;100.00;99658.13;5073141;28;20059;-47